Time;durP1;ratioP1;P1;durP2;ratioP2;P2;SDS_P1;SDS_P2;PMS_P1;PMS_P2;Temp;Humidity;BMP_temperature;BMP_pressure;BME280_temperature;BME280_humidity;BME280_pressure;Samples;Min_cycle;Max_cycle;Signal;HPM_P1;HPM_P2
2022/03/12 00:00:43;;;;;;;17.27;11.45;;;;;;;9.71;38.92;101202.06;5033038;28;20116;-81
2022/03/12 00:03:10;;;;;;;16.70;12.73;;;;;;;9.72;38.91;101208.22;5022204;28;20025;-80
2022/03/12 00:05:36;;;;;;;19.67;12.68;;;;;;;9.70;39.07;101203.00;5042562;28;20093;-80
2022/03/12 00:08:04;;;;;;;18.88;12.48;;;;;;;9.69;39.26;101203.09;5033091;28;20030;-80
2022/03/12 00:10:32;;;;;;;20.83;12.80;;;;;;;9.69;39.45;101201.31;5033215;28;20480;-81
2022/03/12 00:12:58;;;;;;;18.73;12.18;;;;;;;9.71;39.10;101196.75;5034400;28;20037;-80
2022/03/12 00:15:23;;;;;;;18.70;12.48;;;;;;;9.72;39.73;101206.38;5044981;28;20503;-79
2022/03/12 00:17:49;;;;;;;19.15;12.90;;;;;;;9.71;39.93;101199.41;5032857;28;20029;-80
2022/03/12 00:20:18;;;;;;;20.90;12.90;;;;;;;9.73;39.91;101207.25;5032536;28;20124;-80
2022/03/12 00:22:47;;;;;;;17.87;12.53;;;;;;;9.70;39.94;101200.34;5025592;28;20076;-81
2022/03/12 00:25:25;;;;;;;19.80;12.57;;;;;;;9.65;40.05;101198.97;5032616;28;20030;-80
2022/03/12 00:27:51;;;;;;;20.45;11.82;;;;;;;9.69;40.05;101217.25;5031414;28;20075;-80
2022/03/12 00:30:20;;;;;;;18.95;12.90;;;;;;;9.72;40.14;101224.97;5032905;28;20033;-81
2022/03/12 00:32:47;;;;;;;20.63;12.40;;;;;;;9.72;39.93;101218.81;5031375;28;20071;-79
2022/03/12 00:35:14;;;;;;;19.63;13.18;;;;;;;9.74;39.96;101228.38;5032225;28;20029;-80
2022/03/12 00:37:39;;;;;;;18.88;13.15;;;;;;;9.74;40.18;101224.84;5032528;28;20384;-80
2022/03/12 00:40:05;;;;;;;18.75;11.93;;;;;;;9.74;40.13;101230.16;5032241;28;20021;-80
2022/03/12 00:42:31;;;;;;;18.65;12.02;;;;;;;9.72;40.11;101227.63;5045279;28;20108;-80
2022/03/12 00:44:56;;;;;;;19.83;12.10;;;;;;;9.72;40.79;101238.22;5032261;28;20500;-80
2022/03/12 00:47:22;;;;;;;17.95;12.73;;;;;;;9.71;41.22;101239.19;5032225;28;20025;-80
2022/03/12 00:49:49;;;;;;;19.98;12.18;;;;;;;9.68;41.39;101234.09;5032508;28;20433;-80
2022/03/12 00:52:14;;;;;;;17.20;12.70;;;;;;;9.68;42.35;101239.41;5027383;28;20076;-80
2022/03/12 00:54:39;;;;;;;19.40;13.15;;;;;;;9.66;42.49;101228.03;5031608;28;20053;-81
2022/03/12 00:57:04;;;;;;;17.30;12.65;;;;;;;9.63;42.96;101241.50;5032345;28;20047;-80
2022/03/12 00:59:31;;;;;;;18.13;12.85;;;;;;;9.64;43.15;101237.88;5031593;28;20434;-80
2022/03/12 01:01:56;;;;;;;18.65;13.10;;;;;;;9.56;43.52;101229.59;5032282;28;20059;-80
2022/03/12 01:04:21;;;;;;;17.98;12.63;;;;;;;9.55;43.51;101238.50;5031977;28;20045;-81
2022/03/12 01:06:47;;;;;;;19.03;12.83;;;;;;;9.49;43.60;101226.47;5030334;28;20053;-80
2022/03/12 01:09:13;;;;;;;17.60;12.52;;;;;;;9.52;43.51;101230.75;5031715;28;20648;-79
2022/03/12 01:11:39;;;;;;;18.75;12.85;;;;;;;9.51;43.72;101237.88;5033253;28;20392;-80
2022/03/12 01:14:06;;;;;;;20.73;13.50;;;;;;;9.47;43.90;101230.22;5031436;28;20380;-80
2022/03/12 01:16:32;;;;;;;17.65;12.90;;;;;;;9.48;44.98;101243.38;5045863;28;20049;-80
2022/03/12 01:18:58;;;;;;;18.52;13.25;;;;;;;9.48;44.95;101239.88;5031662;28;20057;-80
2022/03/12 01:21:24;;;;;;;21.88;12.65;;;;;;;9.45;45.42;101240.91;5023888;28;20092;-80
2022/03/12 01:23:50;;;;;;;19.08;12.85;;;;;;;9.42;45.82;101241.09;5031638;28;20159;-81
2022/03/12 01:26:17;;;;;;;20.38;13.10;;;;;;;9.30;46.30;101226.00;5031407;28;20116;-81
2022/03/12 01:28:43;;;;;;;19.10;13.25;;;;;;;9.40;47.21;101246.50;5020959;28;20347;-80
2022/03/12 01:31:09;;;;;;;19.65;12.90;;;;;;;9.30;48.81;101237.47;5031838;28;20041;-81
2022/03/12 01:33:34;;;;;;;19.52;13.27;;;;;;;9.30;48.49;101253.38;5031960;28;20049;-80
2022/03/12 01:36:00;;;;;;;21.80;14.00;;;;;;;9.25;49.25;101269.56;5032147;28;20021;-81
2022/03/12 01:38:34;;;;;;;20.77;13.07;;;;;;;9.21;49.09;101252.16;5030564;28;20049;-81
2022/03/12 01:41:06;;;;;;;18.50;13.23;;;;;;;9.14;51.10;101269.38;5030560;28;20037;-80
2022/03/12 01:43:35;;;;;;;20.50;14.57;;;;;;;9.08;51.61;101270.63;5031512;28;20022;-81
2022/03/12 01:46:01;;;;;;;20.45;14.18;;;;;;;9.02;52.40;101268.38;5030751;28;20484;-81
2022/03/12 01:48:28;;;;;;;19.77;14.30;;;;;;;8.96;52.72;101263.47;5031317;28;20040;-81
2022/03/12 01:50:54;;;;;;;19.10;14.10;;;;;;;8.88;53.50;101265.75;5031159;28;20033;-81
2022/03/12 01:53:20;;;;;;;19.95;14.80;;;;;;;8.83;55.17;101260.75;5030853;28;20029;-81
2022/03/12 01:55:46;;;;;;;23.20;15.20;;;;;;;8.78;55.01;101260.19;5031254;28;20291;-82
2022/03/12 01:58:12;;;;;;;19.70;14.43;;;;;;;8.72;55.72;101259.72;5044988;28;20026;-82
2022/03/12 02:00:49;;;;;;;22.00;13.90;;;;;;;8.70;54.86;101259.81;5031482;28;20029;-82
2022/03/12 02:03:17;;;;;;;17.73;13.60;;;;;;;8.69;55.48;101260.75;5044630;28;20048;-81
2022/03/12 02:05:43;;;;;;;21.23;14.23;;;;;;;8.70;55.46;101251.84;5030962;28;20033;-81
2022/03/12 02:08:13;;;;;;;21.55;14.95;;;;;;;8.67;55.75;101263.47;5029511;28;20026;-81
2022/03/12 02:10:38;;;;;;;19.35;13.95;;;;;;;8.68;55.17;101257.25;5031324;28;20037;-81
2022/03/12 02:13:03;;;;;;;21.73;14.77;;;;;;;8.67;54.87;101255.53;5030928;28;20440;-81
2022/03/12 02:15:28;;;;;;;19.58;14.45;;;;;;;8.65;54.79;101253.94;5030450;28;20042;-81
2022/03/12 02:17:54;;;;;;;19.92;13.38;;;;;;;8.67;54.18;101260.00;5042116;28;20051;-81
2022/03/12 02:20:21;;;;;;;17.05;12.93;;;;;;;8.63;54.09;101261.97;5033722;28;20036;-81
2022/03/12 02:22:51;;;;;;;20.77;13.35;;;;;;;8.65;54.96;101265.38;5030811;28;20044;-82
2022/03/12 02:25:17;;;;;;;20.42;13.38;;;;;;;8.66;54.38;101268.88;5030900;28;20017;-81
2022/03/12 02:27:42;;;;;;;19.67;13.10;;;;;;;8.69;54.43;101260.75;5030578;28;20132;-82
2022/03/12 02:30:08;;;;;;;18.30;13.45;;;;;;;8.68;54.82;101253.75;5030946;28;20042;-81
2022/03/12 02:32:36;;;;;;;20.40;14.38;;;;;;;8.70;54.35;101263.28;5024851;28;20549;-81
2022/03/12 02:35:03;;;;;;;18.75;13.32;;;;;;;8.75;54.78;101263.00;5030861;28;20495;-81
2022/03/12 02:37:30;;;;;;;18.05;13.45;;;;;;;8.73;54.38;101272.00;5030596;28;20033;-81
2022/03/12 02:39:58;;;;;;;19.70;12.65;;;;;;;8.74;54.98;101277.19;5030541;28;20381;-81
2022/03/12 02:42:23;;;;;;;20.13;13.52;;;;;;;8.75;55.06;101272.75;5031459;28;20384;-80
2022/03/12 02:44:50;;;;;;;19.00;13.07;;;;;;;8.73;54.97;101275.50;5039390;28;20111;-82
2022/03/12 02:47:25;;;;;;;20.75;13.70;;;;;;;8.72;55.91;101283.53;5035968;28;20478;-81
2022/03/12 02:50:02;;;;;;;21.13;13.35;;;;;;;8.74;54.93;101282.50;5030770;28;20014;-81
2022/03/12 02:52:28;;;;;;;20.88;12.77;;;;;;;8.72;55.73;101281.75;5034956;28;20022;-81
2022/03/12 02:54:57;;;;;;;18.40;12.57;;;;;;;8.72;55.80;101287.03;5034145;28;20111;-81
2022/03/12 02:57:25;;;;;;;23.90;13.43;;;;;;;8.71;56.28;101295.94;5034588;28;20034;-80
2022/03/12 02:59:55;;;;;;;19.57;13.60;;;;;;;8.67;56.28;101289.97;5034214;28;20025;-81
2022/03/12 03:02:31;;;;;;;17.35;12.95;;;;;;;8.67;56.49;101287.31;5026453;28;20268;-81
2022/03/12 03:04:56;;;;;;;18.38;13.20;;;;;;;8.67;56.78;101292.59;5034464;28;20053;-81
2022/03/12 03:07:22;;;;;;;16.58;12.57;;;;;;;8.67;56.03;101291.75;5033902;28;20506;-82
2022/03/12 03:09:47;;;;;;;21.05;13.27;;;;;;;8.61;56.83;101285.06;5046965;28;20025;-81
2022/03/12 03:12:13;;;;;;;18.90;12.25;;;;;;;8.58;56.95;101287.91;5032428;28;20101;-80
2022/03/12 03:14:43;;;;;;;18.90;13.02;;;;;;;8.57;56.96;101293.28;5034035;28;20042;-81
2022/03/12 03:17:10;;;;;;;;;;;;;;;8.59;54.37;101302.81;5029892;28;20539;-81
2022/03/12 03:19:35;;;;;;;17.48;12.05;;;;;;;8.49;57.09;101301.69;5034227;28;19952;-81
2022/03/12 03:22:00;;;;;;;17.65;12.32;;;;;;;8.45;56.99;101310.75;5033812;28;20551;-81
2022/03/12 03:27:10;;;;;;;19.27;12.57;;;;;;;8.35;57.87;101302.50;4575353;22;20060;-63
2022/03/12 03:29:35;;;;;;;18.02;12.90;;;;;;;8.31;58.29;101300.94;5092754;28;20020;-64
2022/03/12 03:32:01;;;;;;;17.02;12.77;;;;;;;8.28;59.31;101304.66;5092568;28;20055;-63
2022/03/12 03:34:28;;;;;;;20.40;11.70;;;;;;;8.24;59.89;101303.09;5085790;28;20036;-64
2022/03/12 03:36:55;;;;;;;17.92;11.38;;;;;;;8.22;61.09;101312.94;5090530;28;20107;-63
2022/03/12 03:39:20;;;;;;;15.00;10.77;;;;;;;8.23;62.23;101313.81;5081368;28;20039;-62
2022/03/12 03:41:45;;;;;;;15.98;11.68;;;;;;;8.20;62.38;101311.34;5092637;28;20028;-64
2022/03/12 03:44:11;;;;;;;14.35;10.40;;;;;;;8.18;63.54;101314.09;5092756;28;20025;-63
2022/03/12 03:46:37;;;;;;;13.48;9.98;;;;;;;8.17;64.50;101317.66;5085817;28;20041;-64
2022/03/12 03:49:04;;;;;;;16.75;10.88;;;;;;;8.14;64.33;101310.75;5092591;28;20050;-63
2022/03/12 03:51:29;;;;;;;17.02;10.95;;;;;;;8.11;64.77;101310.94;5092627;28;20081;-64
2022/03/12 03:53:55;;;;;;;14.02;10.25;;;;;;;8.11;65.28;101323.28;5092065;28;20024;-63
2022/03/12 03:56:21;;;;;;;14.40;10.30;;;;;;;8.08;65.84;101321.69;5072516;28;20466;-63
2022/03/12 03:58:46;;;;;;;15.43;10.02;;;;;;;8.07;65.47;101325.28;5086256;28;20024;-64
2022/03/12 04:01:16;;;;;;;12.10;10.40;;;;;;;8.05;65.84;101321.88;5086367;28;20036;-64
2022/03/12 04:03:48;;;;;;;11.40;9.30;;;;;;;8.04;66.23;101329.91;5072864;28;20458;-63
2022/03/12 04:06:14;;;;;;;14.32;9.55;;;;;;;8.02;66.47;101329.16;5091029;28;20032;-63
2022/03/12 04:08:41;;;;;;;13.25;10.00;;;;;;;7.99;66.46;101332.81;5084376;28;20051;-63
2022/03/12 04:11:08;;;;;;;13.02;10.07;;;;;;;7.97;67.23;101335.53;5092170;28;20165;-63
2022/03/12 04:13:33;;;;;;;11.38;9.57;;;;;;;7.96;67.27;101340.94;5092619;28;20026;-63
2022/03/12 04:16:00;;;;;;;12.25;9.90;;;;;;;7.93;67.55;101330.53;5090202;28;20020;-63
2022/03/12 04:18:26;;;;;;;13.85;9.82;;;;;;;7.90;67.77;101342.13;5092084;28;20028;-64
2022/03/12 04:20:52;;;;;;;13.07;10.27;;;;;;;7.88;67.38;101344.03;5091934;28;20097;-64
2022/03/12 04:23:21;;;;;;;12.32;9.40;;;;;;;7.86;68.60;101340.63;5090489;28;20024;-62
2022/03/12 04:25:51;;;;;;;10.43;8.45;;;;;;;7.83;68.39;101351.38;5090287;28;20051;-64
2022/03/12 04:28:17;;;;;;;10.63;7.90;;;;;;;7.82;68.98;101347.00;5091863;28;20023;-64
2022/03/12 04:30:42;;;;;;;11.48;7.60;;;;;;;7.81;70.49;101345.31;5073978;28;20035;-64
2022/03/12 04:33:10;;;;;;;12.52;8.38;;;;;;;7.80;70.78;101348.03;5073978;28;20394;-63
2022/03/12 04:35:36;;;;;;;10.05;7.80;;;;;;;7.78;70.88;101350.78;5066643;28;20415;-62
2022/03/12 04:38:03;;;;;;;9.00;6.82;;;;;;;7.77;71.40;101343.78;5074318;28;20550;-63
2022/03/12 04:40:28;;;;;;;9.07;7.28;;;;;;;7.75;71.96;101348.31;5091328;28;20107;-63
2022/03/12 04:42:54;;;;;;;10.50;7.32;;;;;;;7.74;72.63;101357.16;5091960;28;20112;-63
2022/03/12 04:45:23;;;;;;;7.90;6.68;;;;;;;7.73;72.94;101352.84;5085079;28;20465;-63
2022/03/12 04:47:50;;;;;;;8.13;6.68;;;;;;;7.71;73.01;101352.03;5071703;28;20028;-63
2022/03/12 04:50:17;;;;;;;8.70;6.60;;;;;;;7.70;73.80;101358.28;5070132;28;20094;-63
2022/03/12 04:52:44;;;;;;;7.50;5.97;;;;;;;7.68;74.14;101358.38;5091202;28;20482;-63
2022/03/12 04:55:20;;;;;;;6.63;5.93;;;;;;;7.67;73.57;101358.47;5079462;28;20029;-63
2022/03/12 04:57:46;;;;;;;8.02;6.15;;;;;;;7.66;74.58;101360.25;5083204;28;20473;-63
2022/03/12 05:00:18;;;;;;;7.25;6.35;;;;;;;7.65;74.98;101358.53;5080491;28;20028;-64
2022/03/12 05:02:45;;;;;;;7.72;6.40;;;;;;;7.65;75.76;101362.97;5077894;28;20071;-65
2022/03/12 05:05:12;;;;;;;9.77;5.93;;;;;;;7.64;75.80;101362.09;5091174;28;20119;-64
2022/03/12 05:07:43;;;;;;;7.50;6.05;;;;;;;7.64;75.30;101358.63;5064810;28;20540;-64
2022/03/12 05:10:09;;;;;;;10.00;6.13;;;;;;;7.63;75.90;101365.72;5079188;28;20140;-63
2022/03/12 05:12:36;;;;;;;8.82;6.18;;;;;;;7.65;76.55;101362.97;5074399;28;20110;-64
2022/03/12 05:15:02;;;;;;;7.72;5.70;;;;;;;7.66;76.57;101369.97;5079215;28;20028;-64
2022/03/12 05:17:28;;;;;;;6.78;6.05;;;;;;;7.65;76.72;101370.91;5074622;28;20401;-64
2022/03/12 05:19:53;;;;;;;9.20;6.35;;;;;;;7.65;76.64;101376.19;5061023;28;20108;-64
2022/03/12 05:22:18;;;;;;;7.05;6.18;;;;;;;7.62;76.44;101379.84;5066185;28;20508;-64
2022/03/12 05:24:43;;;;;;;7.75;5.90;;;;;;;7.64;77.08;101379.78;5070653;28;20060;-64
2022/03/12 05:27:14;;;;;;;6.53;5.90;;;;;;;7.63;77.03;101376.28;5058485;28;20056;-63
2022/03/12 05:29:40;;;;;;;6.95;5.78;;;;;;;7.63;76.73;101388.63;5087723;28;20032;-64
2022/03/12 05:32:07;;;;;;;8.00;6.32;;;;;;;7.62;77.41;101379.84;5078731;28;20036;-64
2022/03/12 05:34:32;;;;;;;7.60;6.80;;;;;;;7.61;77.81;101391.38;5070471;28;20051;-64
2022/03/12 05:36:59;;;;;;;9.65;6.47;;;;;;;7.60;76.47;101397.59;5088364;28;20159;-62
2022/03/12 05:39:24;;;;;;;8.35;6.43;;;;;;;7.58;77.64;101395.03;5090607;28;20482;-63
2022/03/12 05:41:50;;;;;;;9.43;6.85;;;;;;;7.55;77.13;101395.19;5090429;28;20070;-64
2022/03/12 05:44:15;;;;;;;7.95;6.40;;;;;;;7.56;77.66;101402.22;5087911;28;20035;-64
2022/03/12 05:46:41;;;;;;;8.10;6.20;;;;;;;7.55;77.80;101403.13;5065176;28;20327;-64
2022/03/12 05:49:08;;;;;;;7.15;6.07;;;;;;;7.53;77.94;101407.66;5070233;28;20036;-64
2022/03/12 05:51:34;;;;;;;8.95;6.70;;;;;;;7.52;77.49;101407.75;5070016;28;20028;-64
2022/03/12 05:54:00;;;;;;;8.35;6.50;;;;;;;7.51;78.21;101414.81;5088677;28;20031;-64
2022/03/12 05:56:25;;;;;;;8.23;6.38;;;;;;;7.48;77.69;101408.88;5088752;28;20032;-64
2022/03/12 05:58:50;;;;;;;7.13;6.10;;;;;;;7.47;78.01;101408.00;5085923;28;20482;-63
2022/03/12 06:01:15;;;;;;;9.50;6.90;;;;;;;7.44;77.64;101413.44;5078840;28;20739;-63
2022/03/12 06:03:41;;;;;;;9.90;7.75;;;;;;;7.40;77.34;101407.47;5075632;28;20032;-63
2022/03/12 06:06:08;;;;;;;10.45;8.23;;;;;;;7.35;77.60;101409.50;5063037;28;20074;-63
2022/03/12 06:08:34;;;;;;;10.63;7.95;;;;;;;7.31;77.64;101410.63;5090196;28;20024;-63
2022/03/12 06:11:00;;;;;;;10.20;8.45;;;;;;;7.30;77.89;101410.69;5081709;28;20486;-64
2022/03/12 06:13:27;;;;;;;10.60;8.48;;;;;;;7.27;77.85;101410.88;5060286;28;20046;-64
2022/03/12 06:16:00;;;;;;;11.45;8.52;;;;;;;7.23;77.79;101410.19;5070118;28;20028;-64
2022/03/12 06:18:28;;;;;;;10.73;8.15;;;;;;;7.22;77.88;101417.22;5069194;28;20051;-64
2022/03/12 06:20:53;;;;;;;10.70;7.75;;;;;;;7.19;77.78;101420.06;5085732;28;20031;-64
2022/03/12 06:23:19;;;;;;;10.68;7.85;;;;;;;7.19;78.16;101421.81;5086189;28;20028;-64
2022/03/12 06:25:45;;;;;;;11.18;8.10;;;;;;;7.18;78.40;101426.28;5091434;28;20089;-64
2022/03/12 06:28:10;;;;;;;9.32;8.32;;;;;;;7.17;78.40;101423.72;5088690;28;20036;-65
2022/03/12 06:30:36;;;;;;;9.05;7.85;;;;;;;7.16;78.28;101428.16;5083778;28;20047;-63
2022/03/12 06:33:04;;;;;;;10.82;7.95;;;;;;;7.17;78.61;101435.13;5087509;28;20043;-63
2022/03/12 06:35:29;;;;;;;11.05;8.70;;;;;;;7.17;78.63;101427.19;5080740;28;20089;-63
2022/03/12 06:37:56;;;;;;;10.82;8.23;;;;;;;7.18;78.23;101436.00;5093938;28;20036;-64
2022/03/12 06:40:21;;;;;;;9.88;7.90;;;;;;;7.22;78.65;101432.25;5079043;28;20485;-63
2022/03/12 06:42:51;;;;;;;11.30;8.65;;;;;;;7.21;78.90;101434.03;5093914;28;20039;-64
2022/03/12 06:45:16;;;;;;;11.63;8.38;;;;;;;7.26;78.96;101443.50;5094016;28;20035;-64
2022/03/12 06:47:44;;;;;;;11.75;8.93;;;;;;;7.26;78.89;101449.66;5082023;28;20645;-64
2022/03/12 06:50:12;;;;;;;11.93;8.57;;;;;;;7.28;78.79;101446.91;5093865;28;20081;-64
2022/03/12 06:52:43;;;;;;;10.00;7.55;;;;;;;7.29;79.05;101452.09;5093722;28;20100;-64
2022/03/12 06:55:09;;;;;;;10.07;8.02;;;;;;;7.31;79.47;101449.38;5080684;28;20028;-64
2022/03/12 06:57:35;;;;;;;12.13;8.73;;;;;;;7.36;79.36;101455.28;5084797;28;20029;-65
2022/03/12 07:00:00;;;;;;;9.05;7.57;;;;;;;7.37;79.36;101449.91;5076517;28;20077;-65
2022/03/12 07:02:26;;;;;;;11.00;8.15;;;;;;;7.40;79.04;101455.03;5091725;28;20103;-64
2022/03/12 07:04:51;;;;;;;9.88;8.05;;;;;;;7.45;79.26;101459.25;5063979;28;20385;-63
2022/03/12 07:07:17;;;;;;;11.80;8.15;;;;;;;7.49;79.36;101455.47;5073376;28;20029;-63
2022/03/12 07:09:42;;;;;;;11.75;8.55;;;;;;;7.47;79.30;101452.91;5087479;28;20063;-64
2022/03/12 07:12:08;;;;;;;9.30;7.78;;;;;;;7.57;79.37;101466.50;5081244;28;20032;-64
2022/03/12 07:14:33;;;;;;;10.80;7.85;;;;;;;7.61;79.30;101465.41;5093182;28;20505;-64
2022/03/12 07:16:58;;;;;;;9.00;7.88;;;;;;;7.65;79.77;101463.44;5093373;28;20024;-64
2022/03/12 07:19:24;;;;;;;8.23;7.30;;;;;;;7.69;79.17;101467.63;5078256;28;20173;-65
2022/03/12 07:21:49;;;;;;;10.80;8.23;;;;;;;7.71;78.81;101468.38;5092489;28;20154;-64
2022/03/12 07:24:18;;;;;;;10.00;8.00;;;;;;;7.75;78.99;101470.78;5087710;28;20039;-63
2022/03/12 07:26:45;;;;;;;9.43;7.90;;;;;;;7.77;78.85;101474.19;5075092;28;20049;-64
2022/03/12 07:29:11;;;;;;;11.30;8.13;;;;;;;7.82;78.58;101484.53;5072957;28;20041;-64
2022/03/12 07:31:37;;;;;;;9.65;7.85;;;;;;;7.87;78.63;101481.63;5084587;28;20028;-65
2022/03/12 07:34:03;;;;;;;10.90;7.88;;;;;;;7.90;78.86;101487.59;5083988;28;20108;-65
2022/03/12 07:36:28;;;;;;;9.90;8.02;;;;;;;7.96;78.47;101484.63;5087063;28;20374;-64
2022/03/12 07:38:54;;;;;;;10.45;8.23;;;;;;;8.01;77.96;101496.72;5074224;28;20035;-64
2022/03/12 07:41:19;;;;;;;10.80;7.93;;;;;;;8.06;78.12;101495.56;5092929;28;20137;-64
2022/03/12 07:43:45;;;;;;;9.73;7.78;;;;;;;8.12;78.32;101497.84;5093036;28;20115;-65
2022/03/12 07:46:10;;;;;;;9.00;7.97;;;;;;;8.20;78.25;101504.50;5077073;28;20033;-65
2022/03/12 07:48:35;;;;;;;11.02;8.57;;;;;;;8.28;77.75;101511.06;5083551;28;20032;-63
2022/03/12 07:51:01;;;;;;;10.20;7.57;;;;;;;8.37;77.89;101509.69;5092889;28;20035;-65
2022/03/12 07:53:27;;;;;;;9.05;7.68;;;;;;;8.46;77.16;101508.34;5079521;28;20028;-64
2022/03/12 07:55:52;;;;;;;8.73;7.60;;;;;;;8.53;77.23;101504.44;5052590;28;20056;-64
2022/03/12 07:58:18;;;;;;;10.15;8.25;;;;;;;8.64;76.74;101507.31;5052345;28;20025;-63
2022/03/12 08:00:44;;;;;;;11.02;7.93;;;;;;;8.74;76.96;101514.72;5052699;28;20091;-63
2022/03/12 08:03:09;;;;;;;8.75;7.90;;;;;;;8.86;76.28;101524.59;5052743;28;20037;-63
2022/03/12 08:05:35;;;;;;;10.13;7.95;;;;;;;8.94;75.69;101518.84;5052674;28;20062;-63
2022/03/12 08:08:02;;;;;;;9.77;7.47;;;;;;;9.00;75.48;101519.31;5052210;28;20478;-63
2022/03/12 08:10:28;;;;;;;10.10;7.90;;;;;;;9.05;75.24;101519.06;5052513;28;20050;-64
2022/03/12 08:12:54;;;;;;;11.30;7.63;;;;;;;9.14;75.29;101528.25;5052350;28;20111;-64
2022/03/12 08:15:20;;;;;;;10.50;8.10;;;;;;;9.20;74.82;101528.75;5052140;28;20032;-63
2022/03/12 08:17:47;;;;;;;10.73;7.55;;;;;;;9.29;74.74;101531.78;5066109;28;20359;-63
2022/03/12 08:20:12;;;;;;;10.27;7.47;;;;;;;9.37;74.03;101534.84;5072058;28;20033;-62
2022/03/12 08:22:41;;;;;;;11.05;8.20;;;;;;;9.47;74.14;101543.09;5072030;28;20135;-63
2022/03/12 08:25:09;;;;;;;12.80;7.95;;;;;;;9.59;74.05;101542.31;5055543;28;20025;-63
2022/03/12 08:27:35;;;;;;;9.32;7.65;;;;;;;9.73;73.16;101539.69;5052004;28;20103;-63
2022/03/12 08:30:02;;;;;;;11.45;7.65;;;;;;;9.89;72.99;101549.34;5069549;28;20120;-63
2022/03/12 08:32:28;;;;;;;11.10;7.65;;;;;;;10.01;72.55;101556.53;5068738;28;20029;-63
2022/03/12 08:34:55;;;;;;;8.60;7.30;;;;;;;10.14;71.79;101553.94;5068610;28;20417;-63
2022/03/12 08:37:20;;;;;;;10.48;7.50;;;;;;;10.33;72.00;101559.00;5089153;28;20028;-63
2022/03/12 08:39:45;;;;;;;10.20;7.03;;;;;;;10.48;70.94;101565.13;5079231;28;20027;-63
2022/03/12 08:42:10;;;;;;;8.93;7.13;;;;;;;10.62;70.54;101553.59;5080837;28;20297;-62
2022/03/12 08:44:37;;;;;;;10.13;7.05;;;;;;;10.73;69.67;101565.22;5091658;28;20274;-63
2022/03/12 08:47:04;;;;;;;7.78;6.30;;;;;;;10.84;69.80;101561.00;5076688;28;20024;-63
2022/03/12 08:49:29;;;;;;;10.63;6.25;;;;;;;10.96;69.11;101561.97;5064019;28;20115;-63
2022/03/12 08:51:54;;;;;;;9.68;5.80;;;;;;;11.07;68.48;101567.44;5077155;28;20462;-62
2022/03/12 08:54:20;;;;;;;12.68;5.50;;;;;;;11.20;67.32;101559.50;5077508;28;20036;-61
2022/03/12 08:56:45;;;;;;;8.00;4.95;;;;;;;11.31;66.37;101562.28;5064551;28;20021;-63
2022/03/12 08:59:11;;;;;;;6.85;5.10;;;;;;;11.40;66.17;101566.09;5084573;28;20032;-63
2022/03/12 09:01:36;;;;;;;9.63;4.80;;;;;;;11.39;65.48;101565.25;5070481;28;20037;-63
2022/03/12 09:04:02;;;;;;;10.02;5.65;;;;;;;11.45;65.21;101574.63;5067799;28;20364;-62
2022/03/12 09:06:29;;;;;;;7.18;5.13;;;;;;;11.51;65.12;101568.00;5091216;28;20028;-62
2022/03/12 09:08:55;;;;;;;7.15;4.15;;;;;;;11.57;64.25;101567.59;5071153;28;20063;-62
2022/03/12 09:11:21;;;;;;;6.18;4.60;;;;;;;11.58;64.77;101562.16;5082320;28;20110;-61
2022/03/12 09:13:47;;;;;;;7.75;4.68;;;;;;;11.65;64.41;101570.56;5077238;28;20112;-63
2022/03/12 09:16:14;;;;;;;6.18;4.30;;;;;;;11.75;64.17;101576.13;5073319;28;20470;-62
2022/03/12 09:18:41;;;;;;;10.98;4.63;;;;;;;11.82;63.22;101564.94;5090954;28;20104;-62
2022/03/12 09:21:06;;;;;;;7.38;4.20;;;;;;;11.94;63.32;101576.56;5090690;28;20066;-62
2022/03/12 09:23:32;;;;;;;8.70;4.60;;;;;;;12.03;62.27;101569.72;5071303;28;20067;-63
2022/03/12 09:25:57;;;;;;;11.80;4.40;;;;;;;12.06;61.19;101579.28;5082503;28;20047;-62
2022/03/12 09:28:22;;;;;;;6.07;4.17;;;;;;;12.07;61.36;101563.22;5068359;28;20298;-62
2022/03/12 09:30:52;;;;;;;8.00;4.57;;;;;;;12.10;60.53;101570.97;5075724;28;20325;-62
2022/03/12 09:33:20;;;;;;;7.20;3.92;;;;;;;12.20;60.53;101576.50;5080716;28;20024;-64
2022/03/12 09:35:46;;;;;;;8.70;3.90;;;;;;;12.32;60.05;101572.97;5068749;28;20474;-63
2022/03/12 09:38:12;;;;;;;11.60;4.30;;;;;;;12.39;59.25;101574.22;5075373;28;20115;-62
2022/03/12 09:40:37;;;;;;;6.32;3.53;;;;;;;12.44;58.08;101570.34;5077616;28;20024;-62
2022/03/12 09:43:03;;;;;;;8.73;3.22;;;;;;;12.45;57.50;101564.06;5072677;28;20039;-62
2022/03/12 09:45:28;;;;;;;7.53;3.35;;;;;;;12.50;56.78;101576.09;5085342;28;20028;-63
2022/03/12 09:47:54;;;;;;;9.02;2.83;;;;;;;12.53;56.79;101569.69;5071448;28;20024;-63
2022/03/12 09:50:21;;;;;;;8.07;3.28;;;;;;;12.55;56.66;101568.59;5090313;28;20028;-63
2022/03/12 09:52:46;;;;;;;6.28;3.28;;;;;;;12.49;56.05;101581.53;5090753;28;20104;-62
2022/03/12 09:55:12;;;;;;;7.88;3.30;;;;;;;12.48;56.65;101580.69;5082179;28;20467;-64
2022/03/12 09:57:37;;;;;;;7.75;3.20;;;;;;;12.45;56.60;101582.72;5070177;28;20016;-62
2022/03/12 10:00:06;;;;;;;6.57;3.38;;;;;;;12.45;56.57;101582.72;5069951;28;20052;-63
2022/03/12 10:02:33;;;;;;;10.82;3.42;;;;;;;12.50;56.73;101589.41;5052648;28;20501;-62
2022/03/12 10:04:58;;;;;;;7.05;3.28;;;;;;;12.55;56.54;101586.41;5050148;28;20035;-62
2022/03/12 10:07:23;;;;;;;13.87;3.77;;;;;;;12.59;56.30;101582.59;5049899;28;20029;-61
2022/03/12 10:09:49;;;;;;;6.60;3.42;;;;;;;12.64;55.61;101584.88;5050184;28;20275;-63
2022/03/12 10:12:15;;;;;;;7.97;3.40;;;;;;;12.67;55.98;101582.84;5049783;28;20029;-63
2022/03/12 10:14:40;;;;;;;6.97;3.28;;;;;;;12.78;55.18;101593.56;5049940;28;20036;-62
2022/03/12 10:17:06;;;;;;;8.45;3.45;;;;;;;12.88;54.94;101587.56;5049855;28;20550;-63
2022/03/12 10:19:36;;;;;;;10.70;3.50;;;;;;;12.92;54.74;101587.22;5049815;28;20527;-62
2022/03/12 10:22:02;;;;;;;5.60;2.95;;;;;;;13.01;55.17;101593.69;5050013;28;20051;-62
2022/03/12 10:24:27;;;;;;;9.23;3.13;;;;;;;13.08;54.18;101594.91;5050071;28;20483;-62
2022/03/12 10:26:52;;;;;;;7.55;3.17;;;;;;;13.19;53.58;101602.13;5048257;28;20060;-63
2022/03/12 10:29:19;;;;;;;8.23;2.90;;;;;;;13.20;53.50;101592.28;5049847;28;20132;-62
2022/03/12 10:31:44;;;;;;;8.02;3.17;;;;;;;13.24;53.34;101588.41;5049857;28;20350;-63
2022/03/12 10:34:23;;;;;;;7.38;3.00;;;;;;;13.33;53.74;101583.25;5049740;28;20120;-63
2022/03/12 10:36:54;;;;;;;5.82;2.70;;;;;;;13.46;53.14;101579.66;5081459;28;20139;-62
2022/03/12 10:39:34;;;;;;;8.07;2.55;;;;;;;13.63;52.72;101583.69;5069741;28;20462;-62
2022/03/12 10:42:06;;;;;;;6.18;2.70;;;;;;;13.74;52.11;101585.50;5087731;28;20034;-62
2022/03/12 10:44:39;;;;;;;6.68;2.70;;;;;;;13.91;51.86;101601.06;5082834;28;20347;-62
2022/03/12 10:47:16;;;;;;;7.07;2.88;;;;;;;13.96;51.90;101590.03;5085716;28;20034;-63
2022/03/12 10:49:57;;;;;;;8.52;3.25;;;;;;;14.01;51.66;101579.84;5090007;28;20028;-63
2022/03/12 10:52:23;;;;;;;7.97;2.70;;;;;;;14.17;51.08;101593.66;5089755;28;20024;-63
2022/03/12 10:54:49;;;;;;;9.30;3.05;;;;;;;14.29;50.24;101588.28;5077928;28;20078;-63
2022/03/12 10:57:14;;;;;;;6.18;2.50;;;;;;;14.36;49.68;101586.84;5083397;28;20502;-63
2022/03/12 10:59:39;;;;;;;6.95;2.85;;;;;;;14.52;49.73;101587.31;5089807;28;20024;-62
2022/03/12 11:02:05;;;;;;;4.37;2.50;;;;;;;14.69;49.19;101577.91;5075325;28;20085;-63
2022/03/12 11:04:34;;;;;;;7.97;2.80;;;;;;;14.87;48.33;101591.59;5089495;28;20278;-62
2022/03/12 11:07:01;;;;;;;5.63;2.33;;;;;;;14.87;48.01;101580.91;5081785;28;20028;-62
2022/03/12 11:09:36;;;;;;;8.32;2.30;;;;;;;14.93;47.79;101582.22;5084841;28;20040;-62
2022/03/12 11:12:03;;;;;;;6.53;2.30;;;;;;;15.14;47.36;101587.59;5071285;28;20032;-62
2022/03/12 11:14:31;;;;;;;8.43;2.55;;;;;;;15.25;46.67;101584.84;5075471;28;20481;-63
2022/03/12 11:16:57;;;;;;;9.52;2.50;;;;;;;15.31;46.14;101591.50;5093339;28;20020;-62
2022/03/12 11:19:38;;;;;;;6.93;2.20;;;;;;;15.36;46.01;101590.13;5091725;28;20057;-63
2022/03/12 11:22:09;;;;;;;5.72;2.30;;;;;;;15.44;45.73;101594.00;5093246;28;20028;-61
2022/03/12 11:24:47;;;;;;;6.13;2.40;;;;;;;15.44;46.02;101586.81;5087415;28;20028;-63